Time;durP1;ratioP1;P1;durP2;ratioP2;P2;SDS_P1;SDS_P2;PMS_P1;PMS_P2;Temp;Humidity;BMP_temperature;BMP_pressure;BME280_temperature;BME280_humidity;BME280_pressure;Samples;Min_cycle;Max_cycle;Signal;HPM_P1;HPM_P2
2024/01/30 00:02:16;;;;;;;12.40;7.90;;;;;;;-146.29;100.00;59205.81;5072223;28;20292;-68
2024/01/30 00:04:42;;;;;;;9.57;7.30;;;;;;;-146.29;100.00;59205.81;5090334;28;20193;-68
2024/01/30 00:07:07;;;;;;;8.83;7.53;;;;;;;-146.29;100.00;59205.81;5093372;28;20731;-68
2024/01/30 00:09:33;;;;;;;9.17;7.07;;;;;;;-146.29;100.00;59205.81;5097404;28;20186;-67
2024/01/30 00:11:58;;;;;;;11.83;8.03;;;;;;;-146.29;100.00;59205.81;5094649;28;20214;-69
2024/01/30 00:14:24;;;;;;;13.60;8.20;;;;;;;-146.29;100.00;59205.81;5097425;28;20192;-68
2024/01/30 00:16:51;;;;;;;9.70;7.33;;;;;;;-146.29;100.00;59205.81;5088149;28;20227;-68
2024/01/30 00:19:16;;;;;;;11.10;7.20;;;;;;;-146.29;100.00;59205.81;5088435;28;20228;-67
2024/01/30 00:21:41;;;;;;;10.27;7.20;;;;;;;-146.29;100.00;59205.81;5089855;28;20493;-68
2024/01/30 00:24:07;;;;;;;9.73;7.47;;;;;;;-146.29;100.00;59205.81;5077817;28;20787;-69
2024/01/30 00:26:32;;;;;;;12.90;7.93;;;;;;;-146.29;100.00;59205.81;5087418;28;20178;-68
2024/01/30 00:28:58;;;;;;;9.60;7.70;;;;;;;-146.29;100.00;59205.81;5089397;28;20173;-68
2024/01/30 00:31:24;;;;;;;9.03;7.07;;;;;;;-146.29;100.00;59205.81;5088724;28;20696;-68
2024/01/30 00:33:49;;;;;;;9.50;6.93;;;;;;;-146.29;100.00;59205.81;5092854;28;20220;-69
2024/01/30 00:36:15;;;;;;;9.70;7.50;;;;;;;-146.29;100.00;59205.81;5098894;28;20177;-69
2024/01/30 00:38:40;;;;;;;8.57;6.93;;;;;;;-146.29;100.00;59205.81;5087990;28;20205;-68
2024/01/30 00:41:07;;;;;;;13.47;7.23;;;;;;;-146.29;100.00;59205.81;5097778;28;20276;-70
2024/01/30 00:43:33;;;;;;;8.70;6.97;;;;;;;-146.29;100.00;59205.81;5090071;28;20231;-68
2024/01/30 00:45:59;;;;;;;9.37;6.90;;;;;;;-146.29;100.00;59205.81;5092782;28;20978;-69
2024/01/30 00:48:24;;;;;;;9.80;7.63;;;;;;;-146.29;100.00;59205.81;5099397;28;20231;-68
2024/01/30 00:50:49;;;;;;;9.33;6.27;;;;;;;-146.29;100.00;59205.81;5095057;28;20435;-68
2024/01/30 00:53:15;;;;;;;8.50;6.70;;;;;;;-146.29;100.00;59205.81;5091705;28;20182;-70
2024/01/30 00:55:41;;;;;;;10.90;7.60;;;;;;;-146.29;100.00;59205.81;5094451;28;20196;-68
2024/01/30 00:58:06;;;;;;;8.83;6.80;;;;;;;-146.29;100.00;59205.81;5088290;28;20201;-70
2024/01/30 01:00:32;;;;;;;10.77;7.67;;;;;;;-146.29;100.00;59205.81;5070044;28;20740;-69
2024/01/30 01:02:58;;;;;;;10.23;6.83;;;;;;;-146.29;100.00;59205.81;5089403;28;20185;-67
2024/01/30 01:05:24;;;;;;;9.00;7.27;;;;;;;-146.29;100.00;59205.81;5091311;28;20516;-68
2024/01/30 01:07:49;;;;;;;9.83;7.00;;;;;;;-146.29;100.00;59205.81;5072361;28;20511;-67
2024/01/30 01:10:16;;;;;;;10.60;6.83;;;;;;;-146.29;100.00;59205.81;5093877;28;20205;-67
2024/01/30 01:12:41;;;;;;;8.30;6.53;;;;;;;-146.29;100.00;59205.81;5091512;28;20206;-67
2024/01/30 01:15:09;;;;;;;8.47;6.30;;;;;;;-146.29;100.00;59205.81;5095662;28;20496;-70
2024/01/30 01:17:35;;;;;;;8.87;7.03;;;;;;;-146.29;100.00;59205.81;5096466;28;20181;-67
2024/01/30 01:20:01;;;;;;;15.67;7.30;;;;;;;-146.29;100.00;59205.81;5090958;28;20427;-67
2024/01/30 01:22:27;;;;;;;8.07;6.50;;;;;;;-146.29;100.00;59205.81;5090134;28;20435;-68
2024/01/30 01:24:52;;;;;;;9.20;6.77;;;;;;;-146.29;100.00;59205.81;5098027;28;20211;-69
2024/01/30 01:27:18;;;;;;;8.33;6.30;;;;;;;-146.29;100.00;59205.81;5094321;28;20561;-69
2024/01/30 01:29:43;;;;;;;6.87;6.10;;;;;;;-146.29;100.00;59205.81;5087833;28;20268;-68
2024/01/30 01:32:08;;;;;;;11.10;6.70;;;;;;;-146.29;100.00;59205.81;5087806;28;20204;-68
2024/01/30 01:34:34;;;;;;;10.00;6.67;;;;;;;-146.29;100.00;59205.81;5087626;28;20743;-68
2024/01/30 01:36:59;;;;;;;9.40;6.77;;;;;;;-146.29;100.00;59205.81;5083901;28;20177;-68
2024/01/30 01:39:25;;;;;;;10.13;7.23;;;;;;;-146.29;100.00;59205.81;5086917;28;20202;-67
2024/01/30 01:41:51;;;;;;;8.83;6.63;;;;;;;-146.29;100.00;59205.81;5094371;28;20286;-67
2024/01/30 01:44:18;;;;;;;11.80;7.23;;;;;;;-146.29;100.00;59205.81;5094640;28;20193;-67
2024/01/30 01:46:43;;;;;;;8.77;6.83;;;;;;;-146.29;100.00;59205.81;5092320;28;20194;-67
2024/01/30 01:49:09;;;;;;;8.60;6.60;;;;;;;-146.29;100.00;59205.81;5080518;28;20476;-70
2024/01/30 01:51:36;;;;;;;9.80;6.70;;;;;;;-146.29;100.00;59205.81;5081655;28;20722;-67
2024/01/30 01:54:05;;;;;;;8.80;7.17;;;;;;;-146.29;100.00;59205.81;5094050;28;20209;-67
2024/01/30 01:56:31;;;;;;;10.90;6.30;;;;;;;-146.29;100.00;59205.81;5091138;28;20453;-68
2024/01/30 01:59:02;;;;;;;7.60;6.20;;;;;;;-146.29;100.00;59205.81;5102530;28;20454;-68
2024/01/30 02:01:28;;;;;;;9.53;6.97;;;;;;;-146.29;100.00;59205.81;5080535;28;20446;-67
2024/01/30 02:03:54;;;;;;;7.57;6.77;;;;;;;-146.29;100.00;59205.81;5074164;28;20427;-67
2024/01/30 02:06:20;;;;;;;7.93;6.30;;;;;;;-146.29;100.00;59205.81;5075690;28;20424;-68
2024/01/30 02:08:45;;;;;;;10.03;7.63;;;;;;;-146.29;100.00;59205.81;5093306;28;20224;-67
2024/01/30 02:11:11;;;;;;;9.93;6.77;;;;;;;-146.29;100.00;59205.81;5099036;28;20292;-68
2024/01/30 02:13:37;;;;;;;10.60;6.60;;;;;;;-146.29;100.00;59205.81;5072524;28;20266;-68
2024/01/30 02:16:02;;;;;;;9.17;6.70;;;;;;;-146.29;100.00;59205.81;5090962;28;20322;-67
2024/01/30 02:18:28;;;;;;;7.67;6.70;;;;;;;-146.29;100.00;59205.81;5090500;28;20213;-67
2024/01/30 02:20:54;;;;;;;10.60;6.57;;;;;;;-146.29;100.00;59205.81;5094380;28;20288;-67
2024/01/30 02:23:20;;;;;;;8.23;6.50;;;;;;;-146.29;100.00;59205.81;5075999;28;20182;-67
2024/01/30 02:25:46;;;;;;;8.70;6.67;;;;;;;-146.29;100.00;59205.81;5089989;28;20484;-68
2024/01/30 02:28:12;;;;;;;8.33;6.20;;;;;;;-146.29;100.00;59205.81;5091003;28;20411;-67
2024/01/30 02:30:39;;;;;;;11.73;7.53;;;;;;;-146.29;100.00;59205.81;5084776;28;20194;-67
2024/01/30 02:33:04;;;;;;;7.23;5.93;;;;;;;-146.29;100.00;59205.81;5090413;28;20844;-67
2024/01/30 02:35:30;;;;;;;9.00;6.27;;;;;;;-146.29;100.00;59205.81;5096697;28;20518;-67
2024/01/30 02:37:55;;;;;;;9.67;7.20;;;;;;;-146.29;100.00;59205.81;5067009;28;20201;-68
2024/01/30 02:40:20;;;;;;;6.90;6.03;;;;;;;-146.29;100.00;59205.81;5093971;28;20267;-69
2024/01/30 02:42:46;;;;;;;8.10;6.63;;;;;;;-146.29;100.00;59205.81;5093869;28;20887;-67
2024/01/30 02:45:12;;;;;;;10.57;6.37;;;;;;;-146.29;100.00;59205.81;5098529;28;20268;-67
2024/01/30 02:47:38;;;;;;;7.33;6.27;;;;;;;-146.29;100.00;59205.81;5094306;28;20184;-69
2024/01/30 02:50:04;;;;;;;8.13;6.20;;;;;;;-146.29;100.00;59205.81;5089592;28;21170;-67
2024/01/30 02:52:29;;;;;;;8.37;6.47;;;;;;;-146.29;100.00;59205.81;5098232;28;20444;-68
2024/01/30 02:54:55;;;;;;;8.23;6.70;;;;;;;-146.29;100.00;59205.81;5097727;28;20191;-66
2024/01/30 02:57:20;;;;;;;8.03;6.60;;;;;;;-146.29;100.00;59205.81;5089827;28;20180;-69
2024/01/30 02:59:46;;;;;;;7.37;6.00;;;;;;;-146.29;100.00;59205.81;5098993;28;20274;-68
2024/01/30 03:02:11;;;;;;;8.80;6.80;;;;;;;-146.29;100.00;59205.81;5090257;28;20751;-69
2024/01/30 03:04:37;;;;;;;8.20;6.70;;;;;;;-146.29;100.00;59205.81;5089690;28;20202;-68
2024/01/30 03:10:24;;;;;;;9.60;6.80;;;;;;;-146.29;100.00;59205.81;5083280;28;20188;-69
2024/01/30 03:12:49;;;;;;;8.33;6.83;;;;;;;-146.29;100.00;59205.81;5084904;28;20979;-67
2024/01/30 03:15:15;;;;;;;9.97;7.37;;;;;;;-146.29;100.00;59205.81;5097714;28;20225;-68
2024/01/30 03:17:40;;;;;;;10.17;7.40;;;;;;;-146.29;100.00;59205.81;5089349;28;20240;-67
2024/01/30 03:20:06;;;;;;;10.27;7.60;;;;;;;-146.29;100.00;59205.81;5084930;28;20227;-67
2024/01/30 03:22:32;;;;;;;8.03;6.60;;;;;;;-146.29;100.00;59205.81;5068981;28;20560;-67
2024/01/30 03:24:57;;;;;;;9.50;6.77;;;;;;;-146.29;100.00;59205.81;5079154;28;20458;-67
2024/01/30 03:27:23;;;;;;;9.33;7.63;;;;;;;-146.29;100.00;59205.81;5087202;28;20181;-67
2024/01/30 03:29:48;;;;;;;10.33;7.10;;;;;;;-146.29;100.00;59205.81;5088249;28;20319;-67
2024/01/30 03:32:14;;;;;;;11.20;7.90;;;;;;;-146.29;100.00;59205.81;5088685;28;20289;-68
2024/01/30 03:34:39;;;;;;;9.40;7.67;;;;;;;-146.29;100.00;59205.81;5084907;28;20273;-69
2024/01/30 03:37:05;;;;;;;13.40;8.13;;;;;;;-146.29;100.00;59205.81;5087698;28;20743;-67
2024/01/30 03:39:30;;;;;;;12.17;7.70;;;;;;;-146.29;100.00;59205.81;5085132;28;20262;-68
2024/01/30 03:41:56;;;;;;;10.87;8.33;;;;;;;-146.29;100.00;59205.81;5090952;28;20682;-69
2024/01/30 03:44:21;;;;;;;10.87;8.10;;;;;;;-146.29;100.00;59205.81;5071184;28;20186;-68
2024/01/30 03:46:47;;;;;;;11.40;8.27;;;;;;;-146.29;100.00;59205.81;5087776;28;20630;-67
2024/01/30 03:49:12;;;;;;;10.37;7.90;;;;;;;-146.29;100.00;59205.81;5093185;28;20706;-68
2024/01/30 03:51:37;;;;;;;10.60;8.23;;;;;;;-146.29;100.00;59205.81;5099133;28;20295;-66
2024/01/30 03:54:03;;;;;;;11.23;7.93;;;;;;;-146.29;100.00;59205.81;5086564;28;20182;-68
2024/01/30 03:56:28;;;;;;;10.77;8.67;;;;;;;-146.29;100.00;59205.81;5079407;28;20214;-69
2024/01/30 03:58:55;;;;;;;10.97;8.20;;;;;;;-146.29;100.00;59205.81;5089727;28;20259;-67
2024/01/30 04:01:21;;;;;;;11.00;7.53;;;;;;;-146.29;100.00;59205.81;5094489;28;20784;-68
2024/01/30 04:03:46;;;;;;;12.63;8.60;;;;;;;-146.29;100.00;59205.81;5086736;28;20436;-69
2024/01/30 04:06:12;;;;;;;17.13;9.00;;;;;;;-146.29;100.00;59205.81;5089641;28;20849;-69
2024/01/30 04:08:37;;;;;;;12.57;8.73;;;;;;;-146.29;100.00;59205.81;5092397;28;20623;-68
2024/01/30 04:11:06;;;;;;;9.90;7.80;;;;;;;-146.29;100.00;59205.81;5090136;28;20205;-68
2024/01/30 04:13:34;;;;;;;10.40;7.50;;;;;;;-146.29;100.00;59205.81;5069099;28;20193;-68
2024/01/30 04:16:01;;;;;;;10.73;7.17;;;;;;;-146.29;100.00;59205.81;5086767;28;20927;-69
2024/01/30 04:18:27;;;;;;;10.87;7.90;;;;;;;-146.29;100.00;59205.81;5088239;28;20525;-69
2024/01/30 04:20:52;;;;;;;10.83;8.10;;;;;;;-146.29;100.00;59205.81;5083626;28;20463;-69
2024/01/30 04:23:18;;;;;;;11.73;8.73;;;;;;;-146.29;100.00;59205.81;5084215;28;20439;-69
2024/01/30 04:25:43;;;;;;;11.50;8.93;;;;;;;-146.29;100.00;59205.81;5088085;28;20678;-67
2024/01/30 04:28:11;;;;;;;11.43;8.80;;;;;;;-146.29;100.00;59205.81;5074442;28;20265;-69
2024/01/30 04:30:37;;;;;;;16.43;9.77;;;;;;;-146.29;100.00;59205.81;5085758;28;20182;-69
2024/01/30 04:33:03;;;;;;;14.23;8.60;;;;;;;-146.29;100.00;59205.81;5074177;28;20998;-68
2024/01/30 04:35:28;;;;;;;20.50;9.60;;;;;;;-146.29;100.00;59205.81;5079497;28;20178;-68
2024/01/30 04:37:54;;;;;;;15.80;9.87;;;;;;;-146.29;100.00;59205.81;5084941;28;20205;-68
2024/01/30 04:40:20;;;;;;;14.10;9.13;;;;;;;-146.29;100.00;59205.81;5083461;28;20222;-68
2024/01/30 04:42:46;;;;;;;14.73;9.27;;;;;;;-146.29;100.00;59205.81;5092714;28;20210;-67
2024/01/30 04:45:12;;;;;;;12.10;8.80;;;;;;;-146.29;100.00;59205.81;5089188;28;20573;-69
2024/01/30 04:47:38;;;;;;;14.73;9.80;;;;;;;-146.29;100.00;59205.81;5082091;28;20615;-69
2024/01/30 04:50:06;;;;;;;19.50;10.00;;;;;;;-146.29;100.00;59205.81;5089180;28;20173;-67
2024/01/30 04:52:31;;;;;;;13.70;9.80;;;;;;;-146.29;100.00;59205.81;5091976;28;20446;-68
2024/01/30 04:54:57;;;;;;;14.27;9.70;;;;;;;-146.29;100.00;59205.81;5072160;28;20492;-68
2024/01/30 04:57:22;;;;;;;17.20;10.30;;;;;;;-146.29;100.00;59205.81;5082490;28;20209;-67
2024/01/30 04:59:48;;;;;;;18.90;9.50;;;;;;;-146.29;100.00;59205.81;5087638;28;20304;-69
2024/01/30 05:02:13;;;;;;;16.53;10.10;;;;;;;-146.29;100.00;59205.81;5088621;28;20202;-67
2024/01/30 05:04:40;;;;;;;14.27;10.10;;;;;;;-146.29;100.00;59205.81;5093171;28;20238;-68
2024/01/30 05:07:06;;;;;;;13.83;9.57;;;;;;;-146.29;100.00;59205.81;5092889;28;20556;-68
2024/01/30 05:09:31;;;;;;;14.13;9.90;;;;;;;-146.29;100.00;59205.81;5086873;28;20453;-69
2024/01/30 05:11:58;;;;;;;17.57;10.43;;;;;;;-146.29;100.00;59205.81;5093210;28;21027;-69
2024/01/30 05:14:23;;;;;;;13.40;9.67;;;;;;;-146.29;100.00;59205.81;5098407;28;20177;-69
2024/01/30 05:16:48;;;;;;;12.93;9.70;;;;;;;-146.29;100.00;59205.81;5097957;28;20526;-68
2024/01/30 05:19:14;;;;;;;13.47;10.50;;;;;;;-146.29;100.00;59205.81;5090096;28;20284;-69
2024/01/30 05:21:41;;;;;;;15.33;9.93;;;;;;;-146.29;100.00;59205.81;5093290;28;20224;-67
2024/01/30 05:24:06;;;;;;;14.50;9.73;;;;;;;-146.29;100.00;59205.81;5090649;28;20650;-67
2024/01/30 05:26:32;;;;;;;16.00;10.20;;;;;;;-146.29;100.00;59205.81;5091619;28;20508;-68
2024/01/30 05:28:57;;;;;;;17.07;10.70;;;;;;;-146.29;100.00;59205.81;5096485;28;20193;-68
2024/01/30 05:31:23;;;;;;;13.43;10.13;;;;;;;-146.29;100.00;59205.81;5083280;28;20227;-67
2024/01/30 05:33:48;;;;;;;17.23;9.80;;;;;;;-146.29;100.00;59205.81;5101700;28;20614;-68
2024/01/30 05:36:14;;;;;;;15.57;10.53;;;;;;;-146.29;100.00;59205.81;5095211;28;20193;-68
2024/01/30 05:38:39;;;;;;;14.80;10.20;;;;;;;-146.29;100.00;59205.81;5097908;28;20205;-67
2024/01/30 05:41:05;;;;;;;16.20;11.00;;;;;;;-146.29;100.00;59205.81;5091264;28;20557;-67
2024/01/30 05:43:30;;;;;;;13.43;9.70;;;;;;;-146.29;100.00;59205.81;5096781;28;20806;-68
2024/01/30 05:45:56;;;;;;;22.50;10.93;;;;;;;-146.29;100.00;59205.81;5036386;28;20709;-66
2024/01/30 05:48:21;;;;;;;13.27;9.67;;;;;;;-146.29;100.00;59205.81;5089651;28;20196;-66
2024/01/30 05:50:47;;;;;;;13.03;9.50;;;;;;;-146.29;100.00;59205.81;5098177;28;20272;-66
2024/01/30 05:53:12;;;;;;;12.60;9.47;;;;;;;-146.29;100.00;59205.81;5090123;28;20492;-67
2024/01/30 05:55:38;;;;;;;12.17;8.80;;;;;;;-146.29;100.00;59205.81;5091299;28;20189;-68
2024/01/30 05:58:03;;;;;;;12.33;8.40;;;;;;;-146.29;100.00;59205.81;5099034;28;20295;-68
2024/01/30 06:00:29;;;;;;;14.67;9.57;;;;;;;-146.29;100.00;59205.81;5092645;28;20665;-69
2024/01/30 06:02:54;;;;;;;15.93;9.03;;;;;;;-146.29;100.00;59205.81;5090980;28;20212;-68
2024/01/30 06:05:20;;;;;;;14.43;9.20;;;;;;;-146.29;100.00;59205.81;5090592;28;20189;-68
2024/01/30 06:07:45;;;;;;;14.20;9.53;;;;;;;-146.29;100.00;59205.81;5103122;28;20193;-68
2024/01/30 06:10:11;;;;;;;13.60;9.33;;;;;;;-146.29;100.00;59205.81;5093994;28;20181;-68
2024/01/30 06:12:36;;;;;;;13.37;9.60;;;;;;;-146.29;100.00;59205.81;5055148;28;20585;-68
2024/01/30 06:15:02;;;;;;;15.50;10.30;;;;;;;-146.29;100.00;59205.81;5090397;28;20193;-67
2024/01/30 06:17:28;;;;;;;16.63;9.83;;;;;;;-146.29;100.00;59205.81;5090140;28;20181;-69
2024/01/30 06:19:53;;;;;;;12.40;9.27;;;;;;;-146.29;100.00;59205.81;5097454;28;20189;-69
2024/01/30 06:22:19;;;;;;;16.40;8.90;;;;;;;-146.29;100.00;59205.81;5096860;28;20589;-69
2024/01/30 06:24:47;;;;;;;13.57;9.10;;;;;;;-146.29;100.00;59205.81;5095253;28;20658;-68
2024/01/30 06:27:13;;;;;;;11.53;8.70;;;;;;;-146.29;100.00;59205.81;5090697;28;20427;-69
2024/01/30 06:29:38;;;;;;;14.00;10.17;;;;;;;-146.29;100.00;59205.81;5089666;28;20424;-67
2024/01/30 06:32:04;;;;;;;12.83;9.33;;;;;;;-146.29;100.00;59205.81;5089739;28;20842;-68
2024/01/30 06:34:30;;;;;;;13.53;9.30;;;;;;;-146.29;100.00;59205.81;5101291;28;20263;-66
2024/01/30 06:36:55;;;;;;;11.43;9.00;;;;;;;-146.29;100.00;59205.81;5096721;28;21344;-66
2024/01/30 06:39:21;;;;;;;12.07;9.30;;;;;;;-146.29;100.00;59205.81;5090023;28;20293;-66
2024/01/30 06:41:46;;;;;;;12.73;8.53;;;;;;;-146.29;100.00;59205.81;5091205;28;20208;-67
2024/01/30 06:44:12;;;;;;;13.07;8.93;;;;;;;-146.29;100.00;59205.81;5089670;28;20190;-67
2024/01/30 06:46:38;;;;;;;13.90;9.43;;;;;;;-146.29;100.00;59205.81;5089590;28;20200;-67
2024/01/30 06:49:03;;;;;;;12.40;9.10;;;;;;;-146.29;100.00;59205.81;5093968;28;20284;-69
2024/01/30 06:51:29;;;;;;;12.10;9.60;;;;;;;-146.29;100.00;59205.81;5081662;28;21501;-71
2024/01/30 06:53:54;;;;;;;15.03;9.40;;;;;;;-146.29;100.00;59205.81;5083289;28;20633;-67
2024/01/30 06:56:20;;;;;;;20.80;9.57;;;;;;;-146.29;100.00;59205.81;5088491;28;20612;-68
2024/01/30 06:58:52;;;;;;;12.50;9.70;;;;;;;-146.29;100.00;59205.81;5067379;28;20206;-68
2024/01/30 07:01:17;;;;;;;15.90;10.10;;;;;;;-146.29;100.00;59205.81;5092343;28;20493;-69
2024/01/30 07:03:43;;;;;;;16.47;10.10;;;;;;;-146.29;100.00;59205.81;5088557;28;20431;-68
2024/01/30 07:06:10;;;;;;;15.83;9.03;;;;;;;-146.29;100.00;59205.81;5080474;28;20269;-71
2024/01/30 07:08:37;;;;;;;26.33;10.70;;;;;;;-146.29;100.00;59205.81;5084187;28;20213;-69
2024/01/30 07:11:02;;;;;;;19.37;10.67;;;;;;;-146.29;100.00;59205.81;5086509;28;20457;-68
2024/01/30 07:13:28;;;;;;;20.77;10.37;;;;;;;-146.29;100.00;59205.81;5082928;28;20908;-67
2024/01/30 07:15:54;;;;;;;12.83;9.80;;;;;;;-146.29;100.00;59205.81;5087320;28;20223;-68
2024/01/30 07:18:19;;;;;;;14.57;10.00;;;;;;;-146.29;100.00;59205.81;5096159;28;20476;-69
2024/01/30 07:20:49;;;;;;;23.40;11.07;;;;;;;-146.29;100.00;59205.81;5063961;28;20620;-68
2024/01/30 07:23:17;;;;;;;15.73;10.00;;;;;;;-146.29;100.00;59205.81;5086423;28;20190;-69
2024/01/30 07:25:45;;;;;;;14.00;10.67;;;;;;;-146.29;100.00;59205.81;5079169;28;20425;-68
2024/01/30 07:28:12;;;;;;;18.00;10.27;;;;;;;-146.29;100.00;59205.81;5084428;28;20913;-68
2024/01/30 07:30:38;;;;;;;15.40;9.63;;;;;;;-146.29;100.00;59205.81;5091680;28;20431;-69
2024/01/30 07:33:03;;;;;;;17.00;10.00;;;;;;;-146.29;100.00;59205.81;5087585;28;20523;-69
2024/01/30 07:35:28;;;;;;;16.00;9.87;;;;;;;-146.29;100.00;59205.81;5082021;28;20452;-67
2024/01/30 07:37:54;;;;;;;15.60;10.23;;;;;;;-146.29;100.00;59205.81;5059555;28;20204;-69
2024/01/30 07:40:19;;;;;;;14.07;9.33;;;;;;;-146.29;100.00;59205.81;5081035;28;20685;-68
2024/01/30 07:42:45;;;;;;;23.37;10.70;;;;;;;-146.29;100.00;59205.81;5084792;28;20212;-68
2024/01/30 07:45:10;;;;;;;17.10;9.93;;;;;;;-146.29;100.00;59205.81;5073680;28;20225;-67
2024/01/30 07:47:36;;;;;;;19.47;10.60;;;;;;;-146.29;100.00;59205.81;5082300;28;20188;-68
2024/01/30 07:50:02;;;;;;;19.00;10.37;;;;;;;-146.29;100.00;59205.81;5079414;28;20607;-67
2024/01/30 07:52:27;;;;;;;15.90;11.00;;;;;;;-146.29;100.00;59205.81;5069237;28;20196;-68
2024/01/30 07:54:52;;;;;;;16.90;11.20;;;;;;;-146.29;100.00;59205.81;5079858;28;20173;-67
2024/01/30 07:57:18;;;;;;;15.53;10.60;;;;;;;-146.29;100.00;59205.81;5074984;28;20174;-69
2024/01/30 07:59:44;;;;;;;13.53;10.63;;;;;;;-146.29;100.00;59205.81;5079126;28;20262;-69
2024/01/30 08:02:11;;;;;;;19.80;11.17;;;;;;;-146.29;100.00;59205.81;5073135;28;20202;-67
2024/01/30 08:04:36;;;;;;;18.03;11.70;;;;;;;-146.29;100.00;59205.81;5087361;28;20845;-67
2024/01/30 08:07:02;;;;;;;19.03;11.40;;;;;;;-146.29;100.00;59205.81;5083195;28;20425;-69
2024/01/30 08:09:27;;;;;;;18.53;10.93;;;;;;;-146.29;100.00;59205.81;5090371;28;20231;-69
2024/01/30 08:11:53;;;;;;;15.40;11.60;;;;;;;-146.29;100.00;59205.81;5073639;28;20277;-69
2024/01/30 08:14:18;;;;;;;18.30;11.13;;;;;;;-146.29;100.00;59205.81;5070971;28;20276;-69
2024/01/30 08:16:44;;;;;;;26.30;11.63;;;;;;;-146.29;100.00;59205.81;5078134;28;20272;-68
2024/01/30 08:19:09;;;;;;;17.73;11.50;;;;;;;-146.29;100.00;59205.81;5062147;28;20202;-68
2024/01/30 08:21:36;;;;;;;16.53;11.10;;;;;;;-146.29;100.00;59205.81;5082879;28;20288;-71
2024/01/30 08:24:05;;;;;;;17.03;11.17;;;;;;;-146.29;100.00;59205.81;5077220;28;20830;-69
2024/01/30 08:26:31;;;;;;;22.07;11.50;;;;;;;-146.29;100.00;59205.81;5078835;28;20424;-68
2024/01/30 08:28:57;;;;;;;17.27;11.53;;;;;;;-146.29;100.00;59205.81;5084275;28;20440;-69
2024/01/30 08:31:22;;;;;;;16.40;10.80;;;;;;;-146.29;100.00;59205.81;5084579;28;20984;-68
2024/01/30 08:33:48;;;;;;;14.90;9.63;;;;;;;-146.29;100.00;59205.81;5096225;28;20214;-67
2024/01/30 08:36:14;;;;;;;17.67;9.73;;;;;;;-146.29;100.00;59205.81;5086750;28;20251;-71
2024/01/30 08:38:39;;;;;;;15.03;10.70;;;;;;;-146.29;100.00;59205.81;5091719;28;20289;-68
2024/01/30 08:41:05;;;;;;;18.20;9.60;;;;;;;-146.29;100.00;59205.81;5096050;28;20194;-68
2024/01/30 08:43:30;;;;;;;16.43;10.00;;;;;;;-146.29;100.00;59205.81;5087333;28;20260;-69
2024/01/30 08:45:59;;;;;;;13.40;9.97;;;;;;;-146.29;100.00;59205.81;5087815;28;20677;-67
2024/01/30 08:48:25;;;;;;;17.10;10.30;;;;;;;-146.29;100.00;59205.81;5087603;28;20178;-67
2024/01/30 08:50:50;;;;;;;18.67;10.33;;;;;;;-146.29;100.00;59205.81;5094095;28;20444;-70
2024/01/30 08:53:16;;;;;;;13.10;9.67;;;;;;;-146.29;100.00;59205.81;5087034;28;20272;-68
2024/01/30 08:55:41;;;;;;;15.60;10.43;;;;;;;-146.29;100.00;59205.81;5096398;28;21566;-68
2024/01/30 08:58:07;;;;;;;14.93;9.30;;;;;;;-146.29;100.00;59205.81;5087986;28;20323;-68
2024/01/30 09:00:32;;;;;;;15.57;9.40;;;;;;;-146.29;100.00;59205.81;5087268;28;20851;-68
2024/01/30 09:02:58;;;;;;;13.40;8.90;;;;;;;-146.29;100.00;59205.81;5088176;28;20229;-69
2024/01/30 09:05:23;;;;;;;16.37;9.30;;;;;;;-146.29;100.00;59205.81;5048763;28;20744;-68
2024/01/30 09:07:49;;;;;;;15.33;9.50;;;;;;;-146.29;100.00;59205.81;5080708;28;20428;-68
2024/01/30 09:10:14;;;;;;;14.10;9.37;;;;;;;-146.29;100.00;59205.81;5084940;28;20590;-68
2024/01/30 09:12:40;;;;;;;14.03;9.57;;;;;;;-146.29;100.00;59205.81;5077813;28;20634;-69
2024/01/30 09:15:06;;;;;;;14.50;9.30;;;;;;;-146.29;100.00;59205.81;5080750;28;20706;-68
2024/01/30 09:17:33;;;;;;;14.70;9.53;;;;;;;-146.29;100.00;59205.81;5062751;28;20280;-69
2024/01/30 09:19:58;;;;;;;14.50;9.73;;;;;;;-146.29;100.00;59205.81;5069061;28;20890;-67
2024/01/30 09:22:24;;;;;;;11.80;9.10;;;;;;;-146.29;100.00;59205.81;5086979;28;20573;-69
2024/01/30 09:24:49;;;;;;;14.40;9.07;;;;;;;-146.29;100.00;59205.81;5077814;28;20181;-69
2024/01/30 09:27:15;;;;;;;11.33;8.50;;;;;;;-146.29;100.00;59205.81;5079989;28;20233;-69
2024/01/30 09:29:40;;;;;;;13.63;8.20;;;;;;;-146.29;100.00;59205.81;5076147;28;20276;-68
2024/01/30 09:32:06;;;;;;;12.60;8.60;;;;;;;-146.29;100.00;59205.81;5093350;28;20284;-68
2024/01/30 09:34:32;;;;;;;13.70;9.10;;;;;;;-146.29;100.00;59205.81;5089901;28;20268;-68
2024/01/30 09:37:01;;;;;;;12.37;9.10;;;;;;;-146.29;100.00;59205.81;5091172;28;20234;-69
2024/01/30 09:39:26;;;;;;;24.77;10.57;;;;;;;-146.29;100.00;59205.81;5088948;28;20303;-68
2024/01/30 09:42:02;;;;;;;17.17;11.33;;;;;;;-146.29;100.00;59205.81;5087475;28;20436;-69
2024/01/30 09:44:29;;;;;;;14.60;10.63;;;;;;;-146.29;100.00;59205.81;5061186;28;20276;-68
2024/01/30 09:46:55;;;;;;;12.50;9.70;;;;;;;-146.29;100.00;59205.81;5032270;28;20420;-68
2024/01/30 09:49:20;;;;;;;10.50;9.07;;;;;;;-146.29;100.00;59205.81;5027147;28;20430;-68
2024/01/30 09:51:46;;;;;;;13.40;8.87;;;;;;;-146.29;100.00;59205.81;5072284;28;21218;-69
2024/01/30 09:54:13;;;;;;;13.93;9.10;;;;;;;-146.29;100.00;59205.81;5078808;28;20290;-69
2024/01/30 09:56:39;;;;;;;14.03;8.87;;;;;;;-146.29;100.00;59205.81;5088005;28;20208;-68
2024/01/30 09:59:04;;;;;;;11.93;8.90;;;;;;;-146.29;100.00;59205.81;5087520;28;20460;-67
2024/01/30 10:01:31;;;;;;;15.97;8.83;;;;;;;-146.29;100.00;59205.81;5087998;28;20300;-68
2024/01/30 10:03:56;;;;;;;10.97;8.20;;;;;;;-146.29;100.00;59205.81;5074385;28;20208;-68
2024/01/30 10:06:22;;;;;;;17.07;9.07;;;;;;;-146.29;100.00;59205.81;5088339;28;20923;-69
2024/01/30 10:08:48;;;;;;;17.27;8.40;;;;;;;-146.29;100.00;59205.81;5071444;28;20234;-69
2024/01/30 10:11:13;;;;;;;12.40;8.73;;;;;;;-146.29;100.00;59205.81;5099233;28;20440;-68
2024/01/30 10:13:39;;;;;;;12.40;8.33;;;;;;;-146.29;100.00;59205.81;5091694;28;20189;-69
2024/01/30 10:16:06;;;;;;;20.83;8.80;;;;;;;-146.29;100.00;59205.81;5084382;28;20611;-69
2024/01/30 10:18:32;;;;;;;13.20;7.97;;;;;;;-146.29;100.00;59205.81;5075470;28;20210;-68
2024/01/30 10:20:59;;;;;;;12.17;7.87;;;;;;;-146.29;100.00;59205.81;5090389;28;20435;-68
2024/01/30 10:23:24;;;;;;;17.73;7.97;;;;;;;-146.29;100.00;59205.81;5061043;28;20212;-68
2024/01/30 10:25:51;;;;;;;13.43;7.97;;;;;;;-146.29;100.00;59205.81;5060454;28;20423;-68
2024/01/30 10:28:17;;;;;;;9.97;7.07;;;;;;;-146.29;100.00;59205.81;5081701;28;20189;-69
2024/01/30 10:30:43;;;;;;;15.10;7.47;;;;;;;-146.29;100.00;59205.81;5082769;28;20428;-69
2024/01/30 10:33:08;;;;;;;14.13;7.50;;;;;;;-146.29;100.00;59205.81;5090328;28;20204;-68
2024/01/30 10:35:34;;;;;;;8.10;7.07;;;;;;;-146.29;100.00;59205.81;5090188;28;20188;-67
2024/01/30 10:37:59;;;;;;;8.90;4.97;;;;;;;-146.29;100.00;59205.81;5091260;28;20250;-68
2024/01/30 10:40:28;;;;;;;5.30;4.27;;;;;;;-146.29;100.00;59205.81;5094166;28;20192;-67
2024/01/30 10:42:55;;;;;;;3.70;3.03;;;;;;;-146.29;100.00;59205.81;5089888;28;20236;-68
2024/01/30 10:45:22;;;;;;;6.63;3.37;;;;;;;-146.29;100.00;59205.81;5090283;28;20411;-69
2024/01/30 10:47:50;;;;;;;7.50;3.40;;;;;;;-146.29;100.00;59205.81;5087044;28;20435;-68
2024/01/30 10:50:16;;;;;;;10.73;3.73;;;;;;;-146.29;100.00;59205.81;5062621;28;20429;-70
2024/01/30 10:52:43;;;;;;;4.77;3.60;;;;;;;-146.29;100.00;59205.81;5089475;28;20450;-68
2024/01/30 10:55:09;;;;;;;9.50;3.10;;;;;;;-146.29;100.00;59205.81;5079932;28;20274;-68
2024/01/30 10:57:36;;;;;;;5.50;3.73;;;;;;;-146.29;100.00;59205.81;5084092;28;20427;-68
2024/01/30 11:00:10;;;;;;;4.50;3.30;;;;;;;-146.29;100.00;59205.81;5090600;28;21066;-68